Time;durP1;ratioP1;P1;durP2;ratioP2;P2;SDS_P1;SDS_P2;PMS_P1;PMS_P2;Temp;Humidity;BMP_temperature;BMP_pressure;BME280_temperature;BME280_humidity;BME280_pressure;Samples;Min_cycle;Max_cycle;Signal;HPM_P1;HPM_P2
2023/04/15 00:01:17;;;;;;;10.68;6.28;;;;;;;6.81;100.00;101131.28;4967849;28;20412;-75
2023/04/15 00:03:46;;;;;;;11.02;7.50;;;;;;;6.78;100.00;101136.44;4959182;28;20050;-75
2023/04/15 00:06:13;;;;;;;13.18;7.15;;;;;;;6.75;100.00;101141.63;4997930;28;20042;-75
2023/04/15 00:08:41;;;;;;;11.25;7.03;;;;;;;6.74;100.00;101131.97;4980524;28;20682;-76
2023/04/15 00:11:08;;;;;;;10.77;6.75;;;;;;;6.73;100.00;101134.56;4986700;28;20038;-75
2023/04/15 00:13:35;;;;;;;8.82;6.45;;;;;;;6.70;100.00;101131.88;5002373;28;20050;-75
2023/04/15 00:16:03;;;;;;;12.80;6.78;;;;;;;6.68;100.00;101128.34;4986696;28;20050;-75
2023/04/15 00:18:30;;;;;;;10.32;7.05;;;;;;;6.66;100.00;101130.06;4958694;28;20045;-75
2023/04/15 00:20:58;;;;;;;11.63;7.03;;;;;;;6.64;100.00;101127.41;4987704;28;20046;-75
2023/04/15 00:23:25;;;;;;;9.85;7.22;;;;;;;6.64;100.00;101125.66;4988311;28;20056;-75
2023/04/15 00:25:53;;;;;;;12.27;7.53;;;;;;;6.61;100.00;101125.56;4987882;28;20505;-76
2023/04/15 00:28:20;;;;;;;10.25;7.32;;;;;;;6.59;100.00;101132.50;4970337;28;20049;-75
2023/04/15 00:30:47;;;;;;;14.15;7.78;;;;;;;6.58;100.00;101132.50;5005260;28;20440;-75
2023/04/15 00:33:17;;;;;;;11.93;7.85;;;;;;;6.56;100.00;101124.59;4947700;28;20054;-75
2023/04/15 00:35:46;;;;;;;9.93;7.32;;;;;;;6.54;100.00;101126.28;4985108;28;20069;-75
2023/04/15 00:38:13;;;;;;;9.75;7.63;;;;;;;6.51;100.00;101126.22;4963639;28;20049;-76
2023/04/15 00:40:42;;;;;;;10.65;7.55;;;;;;;6.50;100.00;101131.41;4970991;28;20069;-76
2023/04/15 00:43:10;;;;;;;9.88;7.97;;;;;;;6.46;100.00;101129.56;4998772;28;20054;-76
2023/04/15 00:45:37;;;;;;;9.20;7.53;;;;;;;6.45;100.00;101133.91;5003100;28;20054;-76
2023/04/15 00:48:05;;;;;;;12.40;7.90;;;;;;;6.42;100.00;101137.31;4945439;28;20057;-76
2023/04/15 00:50:32;;;;;;;11.70;7.57;;;;;;;6.41;100.00;101139.94;4986790;28;20060;-76
2023/04/15 00:53:00;;;;;;;9.63;6.55;;;;;;;6.39;100.00;101137.28;4993830;28;20081;-76
2023/04/15 00:55:27;;;;;;;9.48;7.32;;;;;;;6.39;100.00;101141.59;4986664;28;20057;-76
2023/04/15 00:57:56;;;;;;;11.32;6.93;;;;;;;6.38;100.00;101132.00;4971828;28;20159;-76
2023/04/15 01:00:23;;;;;;;11.20;7.22;;;;;;;6.35;100.00;101138.06;4981463;28;20061;-76
2023/04/15 01:02:51;;;;;;;7.55;6.68;;;;;;;6.34;100.00;101133.66;4982379;28;20054;-76
2023/04/15 01:05:19;;;;;;;12.25;6.93;;;;;;;6.33;100.00;101136.22;4941999;28;20057;-76
2023/04/15 01:07:47;;;;;;;12.40;7.57;;;;;;;6.31;100.00;101157.09;4984277;28;20046;-76
2023/04/15 01:10:14;;;;;;;9.13;7.30;;;;;;;6.31;100.00;101143.16;4994229;28;20493;-76
2023/04/15 01:12:42;;;;;;;8.77;7.45;;;;;;;6.30;100.00;101150.13;4972859;28;20046;-75
2023/04/15 01:15:09;;;;;;;10.00;7.03;;;;;;;6.30;100.00;101142.28;4990206;28;20053;-75
2023/04/15 01:17:38;;;;;;;9.95;6.85;;;;;;;6.27;100.00;101152.66;4996649;28;20049;-75
2023/04/15 01:20:09;;;;;;;7.80;6.55;;;;;;;6.24;100.00;101148.25;4946788;28;20050;-75
2023/04/15 01:22:37;;;;;;;;;;;;;;;6.23;100.00;101150.81;4994244;28;20053;-76
2023/04/15 01:25:17;;;;;;;10.13;7.72;;;;;;;6.21;100.00;101148.16;4997225;28;19928;-76
2023/04/15 01:27:45;;;;;;;9.27;7.72;;;;;;;6.22;100.00;101138.59;4990651;28;20042;-76
2023/04/15 01:30:12;;;;;;;9.43;7.10;;;;;;;6.20;100.00;101146.38;4990418;28;20058;-75
2023/04/15 01:32:40;;;;;;;9.98;7.85;;;;;;;6.19;100.00;101143.72;4972940;28;20501;-76
2023/04/15 01:35:08;;;;;;;10.50;7.97;;;;;;;6.18;100.00;101141.94;4934848;28;20050;-76
2023/04/15 01:37:36;;;;;;;14.27;8.95;;;;;;;6.16;100.00;101144.53;4988443;28;20085;-76
2023/04/15 01:40:04;;;;;;;10.00;8.18;;;;;;;6.13;100.00;101147.06;4975595;28;20046;-76
2023/04/15 01:42:32;;;;;;;9.68;8.27;;;;;;;6.13;100.00;101149.69;4964820;28;20046;-76
2023/04/15 01:44:59;;;;;;;12.27;8.98;;;;;;;6.12;100.00;101152.25;5005217;28;20096;-76
2023/04/15 01:47:27;;;;;;;13.90;8.65;;;;;;;6.11;100.00;101140.91;4968408;28;20050;-76
2023/04/15 01:49:55;;;;;;;12.32;8.98;;;;;;;6.09;100.00;101141.69;4989810;28;20051;-76
2023/04/15 01:52:22;;;;;;;12.43;9.30;;;;;;;6.08;100.00;101146.06;4911618;28;20073;-76
2023/04/15 01:54:49;;;;;;;10.88;8.90;;;;;;;6.07;100.00;101143.41;4980516;28;20050;-76
2023/04/15 01:57:18;;;;;;;14.27;8.43;;;;;;;6.06;100.00;101145.13;4988900;28;20053;-75
2023/04/15 01:59:45;;;;;;;12.00;9.57;;;;;;;6.03;100.00;101150.28;4985962;28;20073;-75
2023/04/15 02:02:15;;;;;;;12.00;9.15;;;;;;;6.02;100.00;101152.00;4984456;28;20057;-75
2023/04/15 02:04:43;;;;;;;16.58;10.75;;;;;;;6.00;100.00;101158.94;4981530;28;20065;-75
2023/04/15 02:07:11;;;;;;;14.13;9.93;;;;;;;5.99;100.00;101145.81;4947172;28;20046;-75
2023/04/15 02:09:38;;;;;;;15.60;11.13;;;;;;;5.97;100.00;101150.13;5006344;28;20042;-75
2023/04/15 02:12:08;;;;;;;14.25;10.70;;;;;;;5.96;100.00;101153.59;4965119;28;20045;-75
2023/04/15 02:14:36;;;;;;;17.23;10.30;;;;;;;5.93;100.00;101145.63;4988654;28;20050;-75
2023/04/15 02:17:07;;;;;;;13.25;9.38;;;;;;;5.89;100.00;101155.09;4974287;28;20053;-75
2023/04/15 02:19:34;;;;;;;13.13;10.85;;;;;;;5.85;100.00;101154.13;4987915;28;20042;-75
2023/04/15 02:22:02;;;;;;;16.20;11.68;;;;;;;5.84;100.00;101149.78;4928440;28;20509;-75
2023/04/15 02:24:30;;;;;;;16.98;11.70;;;;;;;5.83;100.00;101157.56;4971727;28;20045;-75
2023/04/15 02:26:57;;;;;;;16.10;12.13;;;;;;;5.81;100.00;101162.75;4970061;28;20445;-75
2023/04/15 02:29:25;;;;;;;13.73;11.02;;;;;;;5.79;100.00;101164.44;5004401;28;20050;-75
2023/04/15 02:31:52;;;;;;;14.90;12.57;;;;;;;5.79;100.00;101168.78;4990405;28;20417;-75
2023/04/15 02:34:20;;;;;;;15.52;11.40;;;;;;;5.80;100.00;101173.16;4988210;28;20065;-75
2023/04/15 02:36:48;;;;;;;15.57;11.60;;;;;;;5.77;100.00;101171.34;4989566;28;20053;-75
2023/04/15 02:39:17;;;;;;;15.05;11.90;;;;;;;5.77;100.00;101173.09;4959600;28;20472;-75
2023/04/15 02:41:50;;;;;;;18.65;12.93;;;;;;;5.75;100.00;101178.28;4980244;28;20064;-75
2023/04/15 02:44:19;;;;;;;15.20;11.93;;;;;;;5.73;100.00;101174.72;4978313;28;20046;-75
2023/04/15 02:46:51;;;;;;;15.80;12.75;;;;;;;5.71;100.00;101181.66;4959211;28;20060;-75
2023/04/15 02:49:18;;;;;;;16.67;13.07;;;;;;;5.72;100.00;101188.63;4987484;28;20070;-75
2023/04/15 02:51:48;;;;;;;18.42;13.73;;;;;;;5.70;100.00;101185.09;4986298;28;20810;-75
2023/04/15 02:54:16;;;;;;;19.65;13.05;;;;;;;5.69;100.00;101190.28;4939771;28;20046;-75
2023/04/15 02:56:44;;;;;;;17.58;12.85;;;;;;;5.66;100.00;101185.84;4970514;28;20050;-75
2023/04/15 02:59:11;;;;;;;20.85;13.55;;;;;;;5.66;100.00;101188.47;4960515;28;20057;-75
2023/04/15 03:01:39;;;;;;;17.95;13.52;;;;;;;5.65;100.00;101189.31;4974914;28;20049;-75
2023/04/15 03:04:07;;;;;;;17.67;12.95;;;;;;;5.65;100.00;101186.69;4988419;28;20056;-75
2023/04/15 03:06:35;;;;;;;16.13;13.23;;;;;;;5.63;100.00;101193.59;4985527;28;20046;-75
2023/04/15 03:09:02;;;;;;;18.73;12.57;;;;;;;5.60;100.00;101190.91;4962557;28;20038;-75
2023/04/15 03:11:39;;;;;;;15.38;11.70;;;;;;;5.58;100.00;101193.47;4994288;28;20045;-75
2023/04/15 03:14:08;;;;;;;15.20;11.52;;;;;;;5.57;100.00;101193.44;4983231;28;20050;-75
2023/04/15 03:16:39;;;;;;;15.43;10.55;;;;;;;5.55;100.00;101196.00;4980321;28;20054;-75
2023/04/15 03:19:06;;;;;;;14.82;11.50;;;;;;;5.55;100.00;101184.66;4966554;28;20438;-75
2023/04/15 03:21:34;;;;;;;13.88;10.80;;;;;;;5.54;100.00;101194.25;4986704;28;20053;-77
2023/04/15 03:24:02;;;;;;;12.73;10.38;;;;;;;5.53;100.00;101191.56;4989122;28;20069;-76
2023/04/15 03:26:30;;;;;;;13.27;10.18;;;;;;;5.52;100.00;101195.03;4924687;28;20129;-76
2023/04/15 03:29:07;;;;;;;11.90;10.23;;;;;;;5.51;100.00;101203.72;4974969;28;20402;-75
2023/04/15 03:31:34;;;;;;;12.98;9.90;;;;;;;5.49;100.00;101194.94;4983643;28;20052;-76
2023/04/15 03:34:02;;;;;;;12.45;9.77;;;;;;;5.50;100.00;101191.47;4968070;28;20049;-76
2023/04/15 03:36:33;;;;;;;11.13;9.52;;;;;;;5.46;100.00;101204.47;4999476;28;20090;-76
2023/04/15 03:39:03;;;;;;;11.50;9.80;;;;;;;5.43;100.00;101195.66;5007453;28;20132;-76
2023/04/15 03:41:31;;;;;;;11.85;9.57;;;;;;;5.39;100.00;101197.28;4958382;28;20065;-76
2023/04/15 03:43:59;;;;;;;10.60;8.68;;;;;;;5.37;100.00;101196.34;4971593;28;20491;-76
2023/04/15 03:46:31;;;;;;;10.73;9.13;;;;;;;5.34;100.00;101209.31;4990251;28;20049;-76
2023/04/15 03:48:59;;;;;;;10.60;9.15;;;;;;;5.35;100.00;101195.44;5003806;28;20045;-76
2023/04/15 03:51:27;;;;;;;13.38;8.45;;;;;;;5.35;100.00;101207.59;4979562;28;20042;-76
2023/04/15 03:53:54;;;;;;;9.80;7.82;;;;;;;5.34;100.00;101205.81;4981369;28;20524;-76
2023/04/15 03:56:22;;;;;;;9.68;8.57;;;;;;;5.35;100.00;101211.09;4962715;28;20042;-75
2023/04/15 03:58:49;;;;;;;11.90;9.70;;;;;;;5.36;100.00;101210.25;4961600;28;20672;-76
2023/04/15 04:01:17;;;;;;;10.13;8.77;;;;;;;5.35;100.00;101212.81;4950410;28;20080;-76
2023/04/15 04:03:45;;;;;;;13.05;9.80;;;;;;;5.33;100.00;101211.88;5003897;28;20046;-76
2023/04/15 04:06:13;;;;;;;13.77;10.77;;;;;;;5.32;100.00;101215.34;4965151;28;20524;-76
2023/04/15 04:08:40;;;;;;;11.70;9.30;;;;;;;5.30;100.00;101215.28;4977813;28;20042;-76
2023/04/15 04:11:07;;;;;;;16.35;12.20;;;;;;;5.31;100.00;101214.44;4969468;28;20053;-75
2023/04/15 04:13:35;;;;;;;12.82;11.18;;;;;;;5.34;100.00;101213.66;4927887;28;20057;-76
2023/04/15 04:16:03;;;;;;;13.20;10.82;;;;;;;5.35;100.00;101213.72;4975728;28;20314;-76
2023/04/15 04:18:31;;;;;;;14.13;11.48;;;;;;;5.36;100.00;101223.31;4984914;28;20713;-75
2023/04/15 04:20:59;;;;;;;15.75;12.02;;;;;;;5.41;100.00;101215.63;5002503;28;20060;-76
2023/04/15 04:23:26;;;;;;;13.85;12.10;;;;;;;5.45;100.00;101218.38;4974373;28;20497;-76
2023/04/15 04:25:54;;;;;;;14.45;10.68;;;;;;;5.48;100.00;101214.94;4967075;28;20413;-76
2023/04/15 04:28:21;;;;;;;19.33;12.45;;;;;;;5.50;100.00;101207.16;4912743;28;20180;-76
2023/04/15 04:30:48;;;;;;;14.48;10.90;;;;;;;5.51;100.00;101219.41;4994103;28;20413;-76
2023/04/15 04:33:16;;;;;;;13.43;10.13;;;;;;;5.53;100.00;101221.22;4981952;28;20058;-75
2023/04/15 04:35:43;;;;;;;16.05;11.30;;;;;;;5.56;100.00;101220.44;4986325;28;20049;-76
2023/04/15 04:38:10;;;;;;;14.60;11.48;;;;;;;5.61;100.00;101224.06;4975281;28;20527;-75
2023/04/15 04:40:38;;;;;;;16.10;11.30;;;;;;;5.62;100.00;101226.72;4978873;28;20054;-76
2023/04/15 04:43:05;;;;;;;14.82;11.77;;;;;;;5.68;100.00;101223.38;4987788;28;20059;-76
2023/04/15 04:45:32;;;;;;;20.75;12.73;;;;;;;5.73;100.00;101223.50;4954594;28;20424;-76
2023/04/15 04:48:00;;;;;;;18.23;12.27;;;;;;;5.78;100.00;101224.53;4956378;28;20425;-76
2023/04/15 04:50:27;;;;;;;21.38;14.10;;;;;;;5.84;100.00;101225.63;5000415;28;20062;-76
2023/04/15 04:52:54;;;;;;;18.27;13.18;;;;;;;5.92;100.00;101220.59;4989308;28;20077;-76
2023/04/15 04:55:21;;;;;;;23.25;14.43;;;;;;;5.96;100.00;101219.88;4977852;28;20456;-76
2023/04/15 04:57:49;;;;;;;19.08;13.02;;;;;;;6.03;100.00;101228.75;4993080;28;20065;-76
2023/04/15 05:00:16;;;;;;;18.45;13.38;;;;;;;6.06;100.00;101226.25;4942822;28;20054;-76
2023/04/15 05:02:44;;;;;;;18.73;12.95;;;;;;;6.12;100.00;101230.75;4990063;28;20041;-76
2023/04/15 05:05:12;;;;;;;19.30;12.75;;;;;;;6.16;100.00;101228.28;4963972;28;20061;-76
2023/04/15 05:07:39;;;;;;;20.85;14.02;;;;;;;6.25;100.00;101227.63;4984412;28;20053;-76
2023/04/15 05:10:07;;;;;;;20.15;12.50;;;;;;;6.31;100.00;101237.38;4992142;28;20042;-75
2023/04/15 05:12:36;;;;;;;17.23;11.43;;;;;;;6.38;100.00;101239.31;4983357;28;20053;-76
2023/04/15 05:15:05;;;;;;;16.20;11.15;;;;;;;6.42;100.00;101241.16;4935143;28;20175;-76
2023/04/15 05:17:34;;;;;;;16.40;10.88;;;;;;;6.50;100.00;101249.22;4960285;28;20428;-76
2023/04/15 05:20:02;;;;;;;15.60;9.68;;;;;;;6.54;100.00;101249.34;4985015;28;20073;-77
2023/04/15 05:22:29;;;;;;;12.10;8.80;;;;;;;6.58;100.00;101255.56;4963397;28;21162;-76
2023/04/15 05:24:57;;;;;;;11.20;8.43;;;;;;;6.60;100.00;101252.13;4985726;28;20042;-76
2023/04/15 05:27:24;;;;;;;10.75;7.97;;;;;;;6.64;100.00;101259.22;4953824;28;20062;-76
2023/04/15 05:29:52;;;;;;;12.43;9.20;;;;;;;6.70;100.00;101258.47;5003184;28;20497;-76
2023/04/15 05:32:19;;;;;;;11.05;8.38;;;;;;;6.74;100.00;101265.56;4942100;28;20077;-76
2023/04/15 05:34:46;;;;;;;12.90;8.50;;;;;;;6.79;100.00;101263.06;4961758;28;20066;-76
2023/04/15 05:37:14;;;;;;;11.13;8.07;;;;;;;6.81;100.00;101267.50;4985426;28;20050;-77
2023/04/15 05:39:42;;;;;;;12.57;8.40;;;;;;;6.84;100.00;101271.91;4985594;28;20046;-76
2023/04/15 05:42:09;;;;;;;11.50;7.97;;;;;;;6.88;100.00;101268.56;4957956;28;20408;-76
2023/04/15 05:44:36;;;;;;;13.68;9.10;;;;;;;6.92;100.00;101267.78;4978296;28;20053;-76
2023/04/15 05:47:04;;;;;;;13.68;8.40;;;;;;;6.99;100.00;101277.56;4956600;28;20049;-76
2023/04/15 05:49:32;;;;;;;12.82;9.30;;;;;;;7.03;100.00;101271.53;4974892;28;20111;-76
2023/04/15 05:51:59;;;;;;;11.95;8.30;;;;;;;7.08;100.00;101270.75;4988743;28;20050;-76
2023/04/15 05:54:26;;;;;;;12.00;8.45;;;;;;;7.11;100.00;101297.94;5003826;28;20046;-76
2023/04/15 05:56:55;;;;;;;9.38;7.65;;;;;;;7.15;100.00;101296.28;4995504;28;20038;-76
2023/04/15 05:59:22;;;;;;;10.32;7.82;;;;;;;7.17;100.00;101289.34;4983337;28;20050;-76
2023/04/15 06:01:50;;;;;;;10.95;7.72;;;;;;;7.20;100.00;101292.00;4923674;28;20050;-76
2023/04/15 06:04:18;;;;;;;10.15;7.63;;;;;;;7.22;100.00;101293.84;4941149;28;20050;-76
2023/04/15 06:06:46;;;;;;;10.00;7.65;;;;;;;7.26;100.00;101305.28;4988626;28;20046;-76
2023/04/15 06:09:13;;;;;;;9.73;7.55;;;;;;;7.30;100.00;101299.25;4985547;28;20054;-76
2023/04/15 06:11:40;;;;;;;10.13;7.22;;;;;;;7.34;100.00;101308.97;4987999;28;20057;-76
2023/04/15 06:14:08;;;;;;;10.63;7.13;;;;;;;7.36;100.00;101301.16;4994502;28;20057;-76
2023/04/15 06:16:36;;;;;;;8.65;6.80;;;;;;;7.39;100.00;101301.19;4987936;28;20054;-77
2023/04/15 06:19:03;;;;;;;9.98;7.00;;;;;;;7.45;100.00;101308.31;4960189;28;20535;-74
2023/04/15 06:21:31;;;;;;;10.23;7.35;;;;;;;7.48;100.00;101305.78;4949259;28;20410;-75
2023/04/15 06:24:02;;;;;;;10.15;7.40;;;;;;;7.52;100.00;101316.38;4999105;28;20052;-75
2023/04/15 06:26:30;;;;;;;11.73;7.63;;;;;;;7.52;100.00;101321.59;5003106;28;20492;-75
2023/04/15 06:28:57;;;;;;;9.07;6.10;;;;;;;7.52;100.00;101316.38;4995367;28;20064;-74
2023/04/15 06:31:25;;;;;;;10.90;6.75;;;;;;;7.54;100.00;101311.16;4982183;28;20547;-75
2023/04/15 06:33:52;;;;;;;10.10;6.72;;;;;;;7.56;100.00;101319.94;4926066;28;20527;-74
2023/04/15 06:36:20;;;;;;;12.05;6.90;;;;;;;7.55;100.00;101332.19;4974012;28;20056;-75
2023/04/15 06:38:47;;;;;;;9.70;6.80;;;;;;;7.56;100.00;101338.31;4977832;28;20061;-74
2023/04/15 06:41:14;;;;;;;11.95;6.70;;;;;;;7.58;100.00;101333.97;4990099;28;20065;-74
2023/04/15 06:43:42;;;;;;;10.10;6.68;;;;;;;7.59;100.00;101343.63;4997603;28;20061;-75
2023/04/15 06:46:09;;;;;;;8.68;6.38;;;;;;;7.58;100.00;101341.84;4981942;28;20034;-77
2023/04/15 06:48:40;;;;;;;7.85;6.22;;;;;;;7.57;100.00;101355.84;4941042;28;20042;-76
2023/04/15 06:51:07;;;;;;;7.32;5.47;;;;;;;7.54;100.00;101345.25;4977458;28;20386;-75
2023/04/15 06:53:39;;;;;;;7.63;5.70;;;;;;;7.54;100.00;101358.38;4995552;28;20045;-75
2023/04/15 06:56:08;;;;;;;8.10;5.57;;;;;;;7.52;100.00;101353.09;4979023;28;20060;-74
2023/04/15 06:58:35;;;;;;;7.00;5.32;;;;;;;7.54;100.00;101359.28;4955951;28;20041;-74
2023/04/15 07:01:03;;;;;;;10.55;6.18;;;;;;;7.56;100.00;101368.06;4974765;28;20050;-74
2023/04/15 07:03:31;;;;;;;5.68;5.07;;;;;;;7.57;100.00;101368.94;4928469;28;20061;-77
2023/04/15 07:06:00;;;;;;;7.32;5.30;;;;;;;7.56;100.00;101368.06;4953387;28;20064;-75
2023/04/15 07:08:27;;;;;;;9.30;4.88;;;;;;;7.56;100.00;101373.31;4975188;28;20053;-75
2023/04/15 07:10:54;;;;;;;5.68;4.93;;;;;;;7.57;100.00;101367.19;4998208;28;20060;-74
2023/04/15 07:13:22;;;;;;;11.85;5.28;;;;;;;7.59;100.00;101364.63;4976401;28;20062;-75
2023/04/15 07:15:49;;;;;;;9.63;5.72;;;;;;;7.60;100.00;101369.91;4972800;28;20057;-75
2023/04/15 07:18:16;;;;;;;7.63;5.45;;;;;;;7.63;100.00;101366.47;4939579;28;20052;-75
2023/04/15 07:20:43;;;;;;;7.25;4.75;;;;;;;7.69;100.00;101365.72;4978673;28;20042;-75
2023/04/15 07:23:11;;;;;;;8.88;4.63;;;;;;;7.74;100.00;101364.09;4972131;28;20046;-75
2023/04/15 07:25:38;;;;;;;4.90;4.00;;;;;;;7.74;100.00;101364.97;4983133;28;20053;-75
2023/04/15 07:28:05;;;;;;;5.38;4.03;;;;;;;7.78;100.00;101379.06;4968497;28;20057;-75
2023/04/15 07:30:33;;;;;;;6.03;5.22;;;;;;;7.79;100.00;101372.97;4978087;28;20065;-75
2023/04/15 07:33:02;;;;;;;11.48;4.20;;;;;;;7.80;100.00;101380.84;4938282;28;20046;-75
2023/04/15 07:35:30;;;;;;;7.13;4.55;;;;;;;7.79;100.00;101379.09;4975900;28;20056;-75
2023/04/15 07:37:57;;;;;;;7.32;3.90;;;;;;;7.80;100.00;101383.47;4989126;28;20050;-75
2023/04/15 07:40:25;;;;;;;9.02;4.22;;;;;;;7.80;100.00;101396.59;4984487;28;20042;-75
2023/04/15 07:42:52;;;;;;;6.60;4.28;;;;;;;7.79;100.00;101386.97;4989483;28;20045;-75
2023/04/15 07:45:20;;;;;;;4.63;3.20;;;;;;;7.76;100.00;101391.25;4974284;28;20041;-75
2023/04/15 07:47:47;;;;;;;4.18;3.35;;;;;;;7.75;100.00;101387.75;4977877;28;20061;-75
2023/04/15 07:50:16;;;;;;;5.50;3.55;;;;;;;7.73;100.00;101389.44;4929005;28;20054;-75
2023/04/15 07:52:43;;;;;;;4.65;2.95;;;;;;;7.74;100.00;101393.81;4980136;28;20057;-75
2023/04/15 07:55:11;;;;;;;5.20;3.40;;;;;;;7.75;100.00;101392.09;4988279;28;20038;-75
2023/04/15 07:57:38;;;;;;;4.05;3.15;;;;;;;7.78;100.00;101393.03;4983877;28;20128;-75
2023/04/15 08:00:07;;;;;;;2.88;2.63;;;;;;;7.80;100.00;101398.34;4983481;28;20050;-75
2023/04/15 08:02:42;;;;;;;4.70;2.70;;;;;;;7.80;100.00;101396.59;4958541;28;20620;-75
2023/04/15 08:05:09;;;;;;;5.47;2.80;;;;;;;7.81;100.00;101401.00;4957571;28;20429;-74
2023/04/15 08:07:37;;;;;;;4.07;2.75;;;;;;;7.81;100.00;101400.13;4998042;28;20038;-75
2023/04/15 08:10:05;;;;;;;3.17;2.58;;;;;;;7.80;100.00;101400.97;4991378;28;20057;-74
2023/04/15 08:12:32;;;;;;;4.75;2.30;;;;;;;7.76;100.00;101407.88;4956932;28;24704;-75
2023/04/15 08:15:00;;;;;;;4.75;2.67;;;;;;;7.72;100.00;101413.91;5002299;28;20057;-75
2023/04/15 08:17:28;;;;;;;4.60;2.58;;;;;;;7.74;100.00;101406.94;4953386;28;20077;-74
2023/04/15 08:19:56;;;;;;;4.60;2.22;;;;;;;7.80;100.00;101400.97;4958034;28;20046;-75
2023/04/15 08:22:23;;;;;;;4.35;2.30;;;;;;;7.85;100.00;101401.09;4953348;28;20046;-74
2023/04/15 08:24:50;;;;;;;5.28;2.40;;;;;;;7.88;100.00;101415.16;5000380;28;20050;-75
2023/04/15 08:27:18;;;;;;;5.35;2.25;;;;;;;7.92;100.00;101405.59;4969367;28;20421;-75
2023/04/15 08:29:46;;;;;;;3.15;2.72;;;;;;;7.97;100.00;101399.59;4997061;28;20050;-75
2023/04/15 08:32:13;;;;;;;3.80;2.33;;;;;;;8.06;100.00;101404.19;4969479;28;20053;-74
2023/04/15 08:34:41;;;;;;;9.02;2.50;;;;;;;8.13;100.00;101400.84;4935038;28;20058;-75
2023/04/15 08:37:08;;;;;;;3.42;1.90;;;;;;;8.18;100.00;101412.34;4964278;28;20061;-74
2023/04/15 08:39:38;;;;;;;6.13;2.28;;;;;;;8.24;100.00;101406.34;4996878;28;20045;-74
2023/04/15 08:42:15;;;;;;;3.80;1.70;;;;;;;8.30;100.00;101409.09;4952848;28;20061;-74
2023/04/15 08:44:45;;;;;;;3.35;1.90;;;;;;;8.33;100.00;101408.25;4966830;28;20449;-74
2023/04/15 08:47:13;;;;;;;5.28;1.80;;;;;;;8.29;100.00;101404.69;4980709;28;20501;-74
2023/04/15 08:49:42;;;;;;;2.28;1.73;;;;;;;8.29;100.00;101412.56;4924221;28;20424;-74
2023/04/15 08:52:11;;;;;;;3.70;2.00;;;;;;;8.29;100.00;101422.19;4971436;28;20050;-74
2023/04/15 08:54:38;;;;;;;3.20;1.48;;;;;;;8.26;100.00;101411.59;4957594;28;20053;-75
2023/04/15 08:57:06;;;;;;;4.03;1.63;;;;;;;8.24;100.00;101416.84;4983116;28;20057;-74
2023/04/15 08:59:34;;;;;;;2.40;1.98;;;;;;;8.24;100.00;101418.56;4958007;28;20050;-74
2023/04/15 09:02:02;;;;;;;3.08;1.88;;;;;;;8.24;100.00;101419.47;4992858;28;20038;-74
2023/04/15 09:04:30;;;;;;;2.08;1.58;;;;;;;8.29;100.00;101425.69;4965861;28;20038;-74
2023/04/15 09:06:57;;;;;;;4.35;2.13;;;;;;;8.35;100.00;101428.44;4917613;28;20047;-74
2023/04/15 09:09:25;;;;;;;3.90;1.70;;;;;;;8.37;100.00;101421.50;4987418;28;20049;-75
2023/04/15 09:11:52;;;;;;;3.35;1.80;;;;;;;8.42;100.00;101432.13;4982032;28;20646;-74
2023/04/15 09:14:19;;;;;;;3.00;1.92;;;;;;;8.50;100.00;101429.66;4983324;28;20045;-75
2023/04/15 09:16:57;;;;;;;5.60;2.13;;;;;;;8.55;100.00;101428.91;4971959;28;20058;-75
2023/04/15 09:19:26;;;;;;;3.40;2.03;;;;;;;8.64;100.00;101429.94;4983638;28;20626;-75
2023/04/15 09:21:55;;;;;;;3.65;1.90;;;;;;;8.66;100.00;101428.22;4960101;28;20050;-74
2023/04/15 09:24:36;;;;;;;3.65;1.60;;;;;;;8.61;100.00;101435.16;4983684;28;20591;-75
2023/04/15 09:27:03;;;;;;;2.85;2.00;;;;;;;8.55;100.00;101436.78;4965039;28;20053;-74
2023/04/15 09:29:31;;;;;;;2.72;1.58;;;;;;;8.51;100.00;101434.94;4994476;28;20409;-75
2023/04/15 09:32:14;;;;;;;8.07;1.98;;;;;;;8.53;100.00;101435.88;4988200;28;20421;-74
2023/04/15 09:34:42;;;;;;;4.47;1.60;;;;;;;8.60;100.00;101442.16;4972951;28;20089;-75
2023/04/15 09:37:10;;;;;;;4.57;1.70;;;;;;;8.67;100.00;101446.66;4931928;28;20045;-74
2023/04/15 09:39:48;;;;;;;4.22;1.88;;;;;;;8.74;100.00;101442.44;4963711;28;20054;-74
2023/04/15 09:42:22;;;;;;;4.13;2.03;;;;;;;8.72;100.00;101449.41;4969976;28;20042;-74
2023/04/15 09:44:54;;;;;;;5.07;1.77;;;;;;;8.72;100.00;101450.28;4993059;28;20049;-74
2023/04/15 09:47:31;;;;;;;5.13;1.77;;;;;;;8.72;100.00;101455.53;4995938;28;20850;-75
2023/04/15 09:49:59;;;;;;;3.92;1.67;;;;;;;8.76;100.00;101456.47;4974833;28;20046;-75
2023/04/15 09:52:27;;;;;;;10.73;1.70;;;;;;;8.76;100.00;101473.13;4942288;28;20046;-75
2023/04/15 09:54:59;;;;;;;3.92;1.75;;;;;;;8.79;100.00;101469.69;4998709;28;20424;-75
2023/04/15 09:57:35;;;;;;;3.33;1.92;;;;;;;8.81;100.00;101467.97;4980461;28;20049;-75
2023/04/15 10:00:10;;;;;;;3.05;1.55;;;;;;;8.84;100.00;101468.03;5001502;28;20153;-75
2023/04/15 10:02:40;;;;;;;3.03;1.98;;;;;;;8.86;100.00;101463.69;4991634;28;20038;-75
2023/04/15 10:05:15;;;;;;;4.80;1.70;;;;;;;8.91;100.00;101469.03;4976989;28;20417;-75
2023/04/15 10:07:43;;;;;;;2.20;1.60;;;;;;;8.93;100.00;101464.69;4934794;28;20069;-75
2023/04/15 10:10:12;;;;;;;3.00;1.50;;;;;;;8.98;100.00;101474.44;4980240;28;20050;-75
2023/04/15 10:12:40;;;;;;;4.25;1.60;;;;;;;8.94;100.00;101472.63;4990082;28;20034;-75
2023/04/15 10:15:14;;;;;;;4.20;2.15;;;;;;;8.90;100.00;101476.06;4991014;28;20061;-76
2023/04/15 10:17:43;;;;;;;4.15;1.77;;;;;;;8.91;100.00;101480.44;4992430;28;20583;-75
2023/04/15 10:20:13;;;;;;;4.97;1.80;;;;;;;8.91;100.00;101483.06;4981063;28;20054;-77
2023/04/15 10:22:41;;;;;;;5.57;1.80;;;;;;;8.93;100.00;101485.72;4938275;28;20423;-75
2023/04/15 10:25:10;;;;;;;3.22;1.60;;;;;;;8.91;100.00;101476.94;4965629;28;20053;-75
2023/04/15 10:27:40;;;;;;;2.28;1.70;;;;;;;8.89;100.00;101484.78;4978130;28;20141;-75
2023/04/15 10:30:08;;;;;;;4.07;1.80;;;;;;;8.91;100.00;101483.06;4978486;28;20053;-75
2023/04/15 10:32:37;;;;;;;2.30;1.70;;;;;;;8.98;100.00;101490.22;4966177;28;20051;-75
2023/04/15 10:35:05;;;;;;;4.15;1.88;;;;;;;8.94;100.00;101477.88;4984509;28;20062;-75
2023/04/15 10:37:37;;;;;;;2.13;1.92;;;;;;;8.90;100.00;101491.81;4949944;28;20072;-76
2023/04/15 10:40:30;;;;;;;3.90;1.95;;;;;;;8.82;100.00;101498.66;5000351;28;20057;-75
2023/04/15 10:43:02;;;;;;;4.10;1.58;;;;;;;8.73;100.00;101493.19;4971598;28;20049;-75
2023/04/15 10:45:41;;;;;;;7.38;1.90;;;;;;;8.67;100.00;101493.06;4957696;28;20049;-76
2023/04/15 10:48:08;;;;;;;3.00;1.80;;;;;;;8.62;100.00;101492.06;4981109;28;20073;-76
2023/04/15 10:50:36;;;;;;;6.30;1.63;;;;;;;8.66;100.00;101491.28;4996676;28;20042;-75
2023/04/15 10:53:04;;;;;;;4.72;2.10;;;;;;;8.71;100.00;101492.28;4962933;28;20501;-76
2023/04/15 10:55:33;;;;;;;6.82;2.78;;;;;;;8.76;100.00;101499.41;4977976;28;20492;-76
2023/04/15 10:58:02;;;;;;;7.53;2.90;;;;;;;8.79;100.00;101498.59;4979230;28;20045;-76
2023/04/15 11:00:31;;;;;;;7.72;2.33;;;;;;;8.76;100.00;101488.88;4943318;28;20062;-76
2023/04/15 11:03:05;;;;;;;8.35;2.50;;;;;;;8.76;100.00;101498.53;4971632;28;20049;-76
2023/04/15 11:05:52;;;;;;;6.00;1.77;;;;;;;8.72;100.00;101509.84;4976611;28;20038;-76
2023/04/15 11:09:01;;;;;;;4.70;1.77;;;;;;;8.64;100.00;101519.25;4939129;28;20049;-76
2023/04/15 11:12:07;;;;;;;6.85;2.40;;;;;;;8.58;100.00;101517.38;4975118;28;20287;-76
2023/04/15 11:14:40;;;;;;;4.85;1.85;;;;;;;8.53;100.00;101522.56;4973685;28;20414;-76
2023/04/15 11:17:07;;;;;;;4.45;1.85;;;;;;;8.48;100.00;101529.44;4956017;28;20049;-75
2023/04/15 11:19:37;;;;;;;4.53;1.73;;;;;;;8.46;100.00;101525.00;4965092;28;20050;-76
2023/04/15 11:22:08;;;;;;;6.03;2.13;;;;;;;8.46;100.00;101523.25;4987613;28;20041;-75
2023/04/15 11:24:45;;;;;;;4.28;1.83;;;;;;;8.42;100.00;101529.31;4927028;28;20042;-75
2023/04/15 11:27:20;;;;;;;2.45;1.50;;;;;;;8.35;100.00;101533.47;4983214;28;20484;-75